Time;durP1;ratioP1;P1;durP2;ratioP2;P2;SDS_P1;SDS_P2;PMS_P1;PMS_P2;Temp;Humidity;BMP_temperature;BMP_pressure;BME280_temperature;BME280_humidity;BME280_pressure;Samples;Min_cycle;Max_cycle;Signal;HPM_P1;HPM_P2
2023/01/22 00:01:40;;;;;;;19.27;9.50;;;1.10;99.90;;;;;;5043502;28;20047;-86
2023/01/22 00:04:05;;;;;;;16.98;9.15;;;1.80;99.90;;;;;;5071736;28;20110;-84
2023/01/22 00:06:31;;;;;;;19.20;9.23;;;0.10;99.90;;;;;;5060884;28;20503;-86
2023/01/22 00:09:02;;;;;;;18.98;9.13;;;0.50;99.90;;;;;;5078158;28;20052;-85
2023/01/22 00:11:28;;;;;;;18.08;9.48;;;0.20;99.90;;;;;;5051626;28;20063;-86
2023/01/22 00:13:54;;;;;;;17.05;9.20;;;1.20;99.90;;;;;;5075108;28;20623;-85
2023/01/22 00:16:20;;;;;;;19.77;9.75;;;0.20;99.90;;;;;;5076062;28;20044;-85
2023/01/22 00:18:46;;;;;;;22.27;10.93;;;0.20;99.90;;;;;;5077184;28;20284;-85
2023/01/22 00:21:12;;;;;;;20.60;10.27;;;-2.00;99.90;;;;;;5044876;28;20041;-85
2023/01/22 00:23:39;;;;;;;18.25;10.20;;;2.00;99.90;;;;;;5076034;28;20141;-85
2023/01/22 00:26:12;;;;;;;20.23;10.95;;;2.10;99.90;;;;;;5075031;28;20496;-86
2023/01/22 00:28:40;;;;;;;24.40;11.30;;;0.10;99.90;;;;;;5082468;28;20043;-85
2023/01/22 00:31:07;;;;;;;20.90;11.15;;;0.10;99.90;;;;;;5063545;28;20436;-86
2023/01/22 00:33:33;;;;;;;20.63;11.45;;;0.40;99.90;;;;;;5087949;28;20444;-86
2023/01/22 00:36:12;;;;;;;20.60;11.65;;;0.00;99.90;;;;;;5103264;28;20061;-86
2023/01/22 00:38:38;;;;;;;21.95;11.45;;;-0.80;99.90;;;;;;5074460;28;20047;-85
2023/01/22 00:41:05;;;;;;;18.58;10.88;;;0.00;99.90;;;;;;5076634;28;20040;-86
2023/01/22 00:43:33;;;;;;;23.15;11.60;;;0.00;99.90;;;;;;5085043;28;20039;-86
2023/01/22 00:45:59;;;;;;;22.27;12.50;;;-0.10;99.90;;;;;;5076374;28;20564;-87
2023/01/22 00:48:25;;;;;;;21.88;12.93;;;-0.10;99.90;;;;;;5080640;28;20069;-87
2023/01/22 00:50:51;;;;;;;27.33;13.32;;;-0.10;99.90;;;;;;5099335;28;20125;-86
2023/01/22 00:53:17;;;;;;;24.10;12.90;;;-0.10;99.90;;;;;;5085212;28;20032;-86
2023/01/22 00:55:52;;;;;;;21.55;12.32;;;-0.10;99.90;;;;;;5079085;28;20093;-86
2023/01/22 00:58:18;;;;;;;23.33;12.05;;;-0.10;99.90;;;;;;5078577;28;20139;-86
2023/01/22 01:00:44;;;;;;;23.40;12.73;;;-0.10;99.90;;;;;;5080072;28;20123;-85
2023/01/22 01:05:54;;;;;;;22.05;12.15;;;-0.10;99.90;;;;;;5085961;28;20048;-86
2023/01/22 01:08:20;;;;;;;22.38;11.48;;;-0.10;99.90;;;;;;5097871;28;20040;-86
2023/01/22 01:10:46;;;;;;;22.50;13.20;;;-0.10;99.90;;;;;;5064980;28;20036;-86
2023/01/22 01:13:12;;;;;;;22.23;12.52;;;-0.10;99.90;;;;;;5081079;28;20039;-87
2023/01/22 01:15:38;;;;;;;21.70;11.77;;;-0.10;99.90;;;;;;5084562;28;20032;-86
2023/01/22 01:18:03;;;;;;;20.23;11.55;;;-0.10;99.90;;;;;;5053202;28;20075;-86
2023/01/22 01:20:30;;;;;;;20.05;11.23;;;-0.10;99.90;;;;;;5098823;28;20036;-85
2023/01/22 01:22:55;;;;;;;21.13;12.20;;;-0.10;99.90;;;;;;5104894;28;20035;-86
2023/01/22 01:25:21;;;;;;;23.33;12.25;;;0.30;99.90;;;;;;5055705;28;20035;-86
2023/01/22 01:27:47;;;;;;;22.08;11.20;;;-0.10;99.90;;;;;;5060782;28;20460;-86
2023/01/22 01:30:14;;;;;;;20.73;11.23;;;-0.10;99.90;;;;;;5053979;28;20048;-86
2023/01/22 01:32:40;;;;;;;21.70;12.52;;;-0.10;99.90;;;;;;5071740;28;20042;-87
2023/01/22 01:35:08;;;;;;;22.48;11.45;;;-0.10;99.90;;;;;;5071684;28;20500;-87
2023/01/22 01:37:34;;;;;;;22.65;11.45;;;0.00;99.90;;;;;;5098729;28;20446;-88
2023/01/22 01:39:59;;;;;;;20.95;12.23;;;-0.10;99.90;;;;;;5069086;28;20051;-86
2023/01/22 01:42:32;;;;;;;20.15;10.95;;;0.00;99.90;;;;;;5041967;28;20039;-85
2023/01/22 01:45:24;;;;;;;24.20;11.80;;;0.00;99.90;;;;;;5101007;28;20036;-87
2023/01/22 01:47:55;;;;;;;23.58;12.32;;;-0.10;99.90;;;;;;5092110;28;20043;-87
2023/01/22 01:50:24;;;;;;;20.95;11.15;;;1.00;99.90;;;;;;5094500;28;20127;-86
2023/01/22 01:52:50;;;;;;;21.25;11.60;;;-0.10;99.90;;;;;;5063291;28;20040;-86
2023/01/22 01:55:22;;;;;;;23.95;12.25;;;-0.10;99.90;;;;;;5065336;28;20100;-86
2023/01/22 01:57:48;;;;;;;24.03;13.03;;;-0.10;99.90;;;;;;5084162;28;20051;-87
2023/01/22 02:00:16;;;;;;;22.88;12.68;;;-0.10;99.90;;;;;;5101603;28;20051;-86
2023/01/22 02:02:43;;;;;;;23.08;13.50;;;-0.20;99.90;;;;;;5099352;28;20035;-87
2023/01/22 02:05:09;;;;;;;22.55;12.18;;;-0.20;99.90;;;;;;5081969;28;20047;-86
2023/01/22 02:07:36;;;;;;;24.00;12.32;;;-0.10;99.90;;;;;;5077282;28;20075;-88
2023/01/22 02:10:05;;;;;;;19.77;10.70;;;-0.10;99.90;;;;;;5059234;28;20039;-88
2023/01/22 02:12:32;;;;;;;20.13;10.93;;;-0.10;99.90;;;;;;5097628;28;20040;-86
2023/01/22 02:15:02;;;;;;;19.33;10.57;;;0.00;99.90;;;;;;5073166;28;20090;-87
2023/01/22 02:17:29;;;;;;;22.10;10.73;;;0.10;99.90;;;;;;5101092;28;20044;-88
2023/01/22 02:19:54;;;;;;;20.83;11.13;;;0.10;99.90;;;;;;5099574;28;20114;-87
2023/01/22 02:22:24;;;;;;;18.35;9.68;;;0.20;99.90;;;;;;5097580;28;20405;-87
2023/01/22 02:24:53;;;;;;;16.02;8.77;;;0.30;99.90;;;;;;5101112;28;20484;-88
2023/01/22 02:27:19;;;;;;;18.33;9.18;;;0.30;99.90;;;;;;5083912;28;20055;-87
2023/01/22 02:29:45;;;;;;;16.90;8.35;;;;;;;;;;5078676;28;20047;-86
2023/01/22 02:32:11;;;;;;;17.00;8.10;;;0.30;99.90;;;;;;5098678;28;20042;-86
2023/01/22 02:34:37;;;;;;;16.10;7.70;;;0.40;99.90;;;;;;5100195;28;20036;-88
2023/01/22 02:37:03;;;;;;;15.93;7.63;;;0.40;99.90;;;;;;5102669;28;20052;-86
2023/01/22 02:39:29;;;;;;;14.98;7.65;;;;;;;;;;5051903;28;20044;-86
2023/01/22 02:41:56;;;;;;;21.50;7.70;;;0.60;99.90;;;;;;5095560;28;20040;-86
2023/01/22 02:44:22;;;;;;;14.95;7.32;;;0.60;99.90;;;;;;5061089;28;20044;-86
2023/01/22 02:46:48;;;;;;;13.82;6.60;;;;;;;;;;5060835;28;20036;-87
2023/01/22 02:49:14;;;;;;;13.77;6.55;;;0.70;99.90;;;;;;5073949;28;20043;-87
2023/01/22 02:51:39;;;;;;;15.68;6.85;;;0.70;99.90;;;;;;5098973;28;20032;-85
2023/01/22 02:54:05;;;;;;;12.90;6.45;;;0.70;99.90;;;;;;5051164;28;20538;-86
2023/01/22 02:56:33;;;;;;;12.60;6.15;;;0.80;99.90;;;;;;5094665;28;20040;-88
2023/01/22 02:59:04;;;;;;;11.95;5.72;;;1.50;99.90;;;;;;5080221;28;20055;-88
2023/01/22 03:01:30;;;;;;;11.57;5.68;;;0.80;99.90;;;;;;5082967;28;20039;-87
2023/01/22 03:04:00;;;;;;;12.88;5.60;;;0.80;99.90;;;;;;5059325;28;20054;-87
2023/01/22 03:06:28;;;;;;;14.07;5.85;;;0.80;99.90;;;;;;5087548;28;20040;-87
2023/01/22 03:08:57;;;;;;;11.07;5.25;;;0.90;99.90;;;;;;5070669;28;20043;-87
2023/01/22 03:11:26;;;;;;;12.93;5.60;;;0.90;99.90;;;;;;5081278;28;20485;-87
2023/01/22 03:22:08;;;;;;;13.40;5.80;;;0.90;99.90;;;;;;5097319;28;20130;-88
2023/01/22 03:24:41;;;;;;;11.93;5.50;;;1.00;99.90;;;;;;5091578;28;20050;-86
2023/01/22 03:27:07;;;;;;;12.68;5.68;;;1.00;99.90;;;;;;5084661;28;20039;-87
2023/01/22 03:29:37;;;;;;;11.45;5.05;;;1.00;99.90;;;;;;5084608;28;20035;-86
2023/01/22 03:32:04;;;;;;;11.15;5.00;;;1.00;99.90;;;;;;5063908;28;20048;-88
2023/01/22 03:34:30;;;;;;;12.65;5.53;;;0.70;99.90;;;;;;5077748;28;20109;-86
2023/01/22 03:36:55;;;;;;;13.82;5.40;;;2.80;99.90;;;;;;5067220;28;20068;-86
2023/01/22 03:39:22;;;;;;;10.98;4.95;;;1.00;99.90;;;;;;5082920;28;20629;-87
2023/01/22 03:41:48;;;;;;;12.75;5.47;;;1.00;99.90;;;;;;5071863;28;20044;-87
2023/01/22 03:44:13;;;;;;;13.95;5.30;;;1.00;99.90;;;;;;5077381;28;20121;-87
2023/01/22 03:46:40;;;;;;;11.93;4.70;;;;;;;;;;5064613;28;20324;-88
2023/01/22 03:49:06;;;;;;;11.90;5.15;;;1.10;99.90;;;;;;5081214;28;20048;-86
2023/01/22 03:51:36;;;;;;;12.52;5.10;;;;;;;;;;5100119;28;20040;-87
2023/01/22 03:54:05;;;;;;;10.93;4.57;;;1.00;99.90;;;;;;5074168;28;20043;-87
2023/01/22 03:56:31;;;;;;;10.55;4.45;;;1.10;99.90;;;;;;5082798;28;20071;-88
2023/01/22 03:58:57;;;;;;;10.40;5.15;;;1.00;99.90;;;;;;5067109;28;20329;-87
2023/01/22 04:01:26;;;;;;;11.05;5.00;;;1.10;99.90;;;;;;5085669;28;20055;-87
2023/01/22 04:03:52;;;;;;;13.25;4.72;;;1.10;99.90;;;;;;5071357;28;20473;-87
2023/01/22 04:06:19;;;;;;;12.43;4.90;;;1.10;99.90;;;;;;5095659;28;20126;-86
2023/01/22 04:08:53;;;;;;;11.15;5.15;;;1.10;99.90;;;;;;5068692;28;20040;-86
2023/01/22 04:11:25;;;;;;;10.95;4.57;;;1.10;99.90;;;;;;5081485;28;20070;-87
2023/01/22 04:13:53;;;;;;;11.50;4.50;;;1.10;99.90;;;;;;5080807;28;20032;-86
2023/01/22 04:16:19;;;;;;;12.68;5.07;;;1.10;99.90;;;;;;5065721;28;20054;-86
2023/01/22 04:18:44;;;;;;;11.43;4.68;;;1.20;99.90;;;;;;5050422;28;20492;-86
2023/01/22 04:21:11;;;;;;;11.02;5.15;;;1.20;99.90;;;;;;5045238;28;20036;-87
2023/01/22 04:23:37;;;;;;;10.68;4.82;;;1.20;99.90;;;;;;5073824;28;20039;-87
2023/01/22 04:26:03;;;;;;;11.32;5.20;;;1.20;99.90;;;;;;5071986;28;20048;-87
2023/01/22 04:28:29;;;;;;;11.40;4.70;;;1.20;99.90;;;;;;5080559;28;20037;-87
2023/01/22 04:30:55;;;;;;;12.13;5.22;;;;;;;;;;5078333;28;20048;-87
2023/01/22 04:33:21;;;;;;;10.18;4.43;;;1.20;99.90;;;;;;5077383;28;20048;-87
2023/01/22 04:35:51;;;;;;;10.13;4.55;;;1.10;99.90;;;;;;5068380;28;20097;-87
2023/01/22 04:38:17;;;;;;;10.07;4.60;;;1.20;99.90;;;;;;5076433;28;20036;-89
2023/01/22 04:40:43;;;;;;;11.30;4.72;;;2.60;99.90;;;;;;5097298;28;20519;-88
2023/01/22 04:43:09;;;;;;;10.00;4.40;;;1.30;99.90;;;;;;5078244;28;20047;-89
2023/01/22 04:45:35;;;;;;;11.18;4.72;;;1.20;99.90;;;;;;5063609;28;20394;-87
2023/01/22 04:48:01;;;;;;;10.68;4.72;;;1.60;99.90;;;;;;5094415;28;20047;-86
2023/01/22 04:50:30;;;;;;;10.32;4.43;;;-0.20;99.90;;;;;;5082002;28;20066;-87
2023/01/22 04:52:57;;;;;;;9.57;4.13;;;1.30;99.90;;;;;;5070082;28;20044;-87
2023/01/22 04:55:24;;;;;;;10.45;4.20;;;1.30;99.90;;;;;;5078408;28;20047;-87
2023/01/22 04:57:52;;;;;;;12.20;4.65;;;1.30;99.90;;;;;;5074735;28;20070;-86
2023/01/22 05:00:18;;;;;;;11.50;4.28;;;1.20;99.90;;;;;;5083666;28;20146;-86
2023/01/22 05:02:44;;;;;;;10.27;4.18;;;;;;;;;;5097607;28;20118;-87
2023/01/22 05:05:10;;;;;;;11.75;5.55;;;1.30;99.90;;;;;;5061086;28;21636;-88
2023/01/22 05:07:36;;;;;;;10.27;4.60;;;;;;;;;;5079069;28;20134;-86
2023/01/22 05:10:02;;;;;;;11.27;4.25;;;1.30;99.90;;;;;;5076237;28;20036;-88
2023/01/22 05:12:28;;;;;;;12.20;4.90;;;1.20;99.90;;;;;;5074345;28;20040;-87
2023/01/22 05:14:54;;;;;;;11.70;4.75;;;1.20;99.90;;;;;;5084927;28;20114;-87
2023/01/22 05:17:20;;;;;;;10.23;4.57;;;0.70;99.90;;;;;;5103041;28;20454;-87
2023/01/22 05:19:46;;;;;;;12.05;5.40;;;3.20;99.90;;;;;;5075479;28;20476;-88
2023/01/22 05:22:15;;;;;;;11.50;5.10;;;;;;;;;;5079076;28;20028;-87
2023/01/22 05:24:41;;;;;;;10.35;4.90;;;1.20;99.90;;;;;;5083880;28;20044;-87
2023/01/22 05:27:09;;;;;;;11.70;5.20;;;1.20;99.90;;;;;;5079145;28;20032;-86
2023/01/22 05:29:35;;;;;;;13.55;5.32;;;;;;;;;;5065198;28;20115;-88
2023/01/22 05:32:04;;;;;;;12.43;5.13;;;1.20;99.90;;;;;;5057584;28;20075;-89
2023/01/22 05:34:30;;;;;;;10.02;4.68;;;1.10;99.90;;;;;;5101888;28;20480;-86
2023/01/22 05:37:05;;;;;;;10.68;4.65;;;1.10;99.90;;;;;;5079513;28;20139;-87
2023/01/22 05:39:30;;;;;;;12.70;5.03;;;1.10;99.90;;;;;;5087228;28;20047;-86
2023/01/22 05:42:00;;;;;;;9.43;4.60;;;;;;;;;;5063895;28;20047;-88
2023/01/22 05:44:26;;;;;;;10.93;5.20;;;1.10;99.90;;;;;;5101140;28;20130;-88
2023/01/22 05:46:51;;;;;;;11.88;5.40;;;1.10;99.90;;;;;;5092370;28;20131;-88
2023/01/22 05:49:17;;;;;;;10.90;5.10;;;1.10;99.90;;;;;;5071126;28;20484;-87
2023/01/22 05:51:43;;;;;;;10.30;5.32;;;1.00;99.90;;;;;;5064042;28;20269;-87
2023/01/22 05:54:11;;;;;;;10.88;5.30;;;1.00;99.90;;;;;;5090176;28;20032;-87
2023/01/22 05:56:40;;;;;;;14.15;5.45;;;1.10;99.90;;;;;;5087706;28;20028;-88
2023/01/22 05:59:06;;;;;;;10.23;5.15;;;1.10;99.90;;;;;;5073707;28;20101;-87
2023/01/22 06:01:34;;;;;;;11.02;4.78;;;1.10;99.90;;;;;;5084582;28;20537;-88
2023/01/22 06:04:00;;;;;;;10.20;5.03;;;-1.20;99.90;;;;;;5078896;28;20484;-88
2023/01/22 06:06:26;;;;;;;12.18;5.53;;;1.00;99.90;;;;;;5064079;28;20039;-86
2023/01/22 06:09:00;;;;;;;11.30;5.28;;;1.00;99.90;;;;;;5058767;28;20036;-88
2023/01/22 06:11:31;;;;;;;11.63;5.82;;;1.00;99.90;;;;;;5065491;28;20051;-87
2023/01/22 06:13:57;;;;;;;11.88;5.88;;;1.00;99.90;;;;;;5078420;28;20090;-89
2023/01/22 06:16:23;;;;;;;12.88;5.82;;;2.00;99.90;;;;;;5095870;28;20571;-86
2023/01/22 06:18:49;;;;;;;11.35;5.53;;;;;;;;;;5083282;28;20032;-87
2023/01/22 06:21:15;;;;;;;12.18;5.55;;;;;;;;;;5098786;28;20388;-87
2023/01/22 06:23:44;;;;;;;12.02;5.75;;;1.00;99.90;;;;;;5059968;28;20044;-87
2023/01/22 06:26:10;;;;;;;12.05;5.65;;;1.00;99.90;;;;;;5090177;28;20526;-86
2023/01/22 06:28:36;;;;;;;10.80;5.22;;;0.90;99.90;;;;;;5081873;28;20428;-87
2023/01/22 06:31:06;;;;;;;10.48;5.22;;;0.90;99.90;;;;;;5096795;28;20123;-88
2023/01/22 06:33:36;;;;;;;11.65;5.72;;;;;;;;;;5083622;28;20032;-86
2023/01/22 06:36:05;;;;;;;11.82;5.82;;;0.90;99.90;;;;;;5098864;28;20419;-87
2023/01/22 06:38:36;;;;;;;11.77;5.78;;;;;;;;;;5068176;28;20044;-88
2023/01/22 06:41:08;;;;;;;11.10;5.53;;;0.90;99.90;;;;;;5093819;28;20591;-88
2023/01/22 06:43:43;;;;;;;11.25;5.68;;;0.90;99.90;;;;;;5081468;28;20085;-88
2023/01/22 06:46:11;;;;;;;12.40;5.90;;;0.90;99.90;;;;;;5075416;28;20123;-87
2023/01/22 06:48:37;;;;;;;11.32;6.18;;;0.90;99.90;;;;;;5066636;28;20048;-88
2023/01/22 06:51:03;;;;;;;15.88;6.18;;;0.90;99.90;;;;;;5079111;28;21581;-87
2023/01/22 06:53:29;;;;;;;11.90;6.10;;;0.80;99.90;;;;;;5074455;28;20047;-86
2023/01/22 06:55:57;;;;;;;11.23;6.22;;;;;;;;;;5067691;28;20640;-87
2023/01/22 06:58:23;;;;;;;12.90;6.15;;;0.90;99.90;;;;;;5099766;28;20048;-86
2023/01/22 07:00:52;;;;;;;12.93;6.28;;;0.90;99.90;;;;;;5095477;28;20051;-87
2023/01/22 07:03:18;;;;;;;13.27;6.40;;;0.40;99.90;;;;;;5063353;28;20047;-87
2023/01/22 07:05:54;;;;;;;12.85;6.35;;;0.90;99.90;;;;;;5075334;28;20046;-87
2023/01/22 07:08:27;;;;;;;12.50;6.25;;;;;;;;;;5096101;28;20113;-87
2023/01/22 07:10:53;;;;;;;12.38;6.22;;;0.80;99.90;;;;;;5082328;28;20085;-87
2023/01/22 07:13:19;;;;;;;14.43;6.40;;;0.80;99.90;;;;;;5079205;28;20035;-88
2023/01/22 07:15:45;;;;;;;11.75;6.22;;;0.80;99.90;;;;;;5047816;28;20585;-87
2023/01/22 07:18:13;;;;;;;13.43;5.72;;;0.80;99.90;;;;;;5075844;28;20071;-87
2023/01/22 07:20:41;;;;;;;11.55;6.43;;;0.80;99.90;;;;;;5096148;28;20048;-88
2023/01/22 07:23:07;;;;;;;12.60;6.60;;;-1.00;99.90;;;;;;5094712;28;20035;-88
2023/01/22 07:25:33;;;;;;;13.18;6.82;;;0.70;99.90;;;;;;5077363;28;20151;-87
2023/01/22 07:28:07;;;;;;;12.63;6.68;;;0.70;99.90;;;;;;5081813;28;20523;-87
2023/01/22 07:30:33;;;;;;;12.07;6.45;;;0.80;99.90;;;;;;5099885;28;20442;-86
2023/01/22 07:33:00;;;;;;;11.73;6.80;;;0.70;99.90;;;;;;5071026;28;20054;-86
2023/01/22 07:35:26;;;;;;;11.43;6.47;;;0.70;99.90;;;;;;5075368;28;20043;-85
2023/01/22 07:37:53;;;;;;;11.93;6.45;;;0.50;99.90;;;;;;5077990;28;20036;-86
2023/01/22 07:40:19;;;;;;;14.32;7.43;;;0.60;99.90;;;;;;5079887;28;20044;-89
2023/01/22 07:42:45;;;;;;;14.73;7.32;;;0.80;99.90;;;;;;5080014;28;20035;-86
2023/01/22 07:45:11;;;;;;;11.73;7.05;;;0.80;99.90;;;;;;5091638;28;20036;-88
2023/01/22 07:47:37;;;;;;;13.57;7.18;;;;;;;;;;5072856;28;20577;-87
2023/01/22 07:50:03;;;;;;;13.85;7.05;;;0.70;99.90;;;;;;5073428;28;20032;-86
2023/01/22 07:52:29;;;;;;;15.45;7.40;;;0.80;99.90;;;;;;5094616;28;20089;-88
2023/01/22 07:54:55;;;;;;;14.38;6.85;;;0.80;99.90;;;;;;5075407;28;20068;-89
2023/01/22 07:57:21;;;;;;;14.70;7.15;;;;;;;;;;5065283;28;20073;-88
2023/01/22 07:59:47;;;;;;;13.40;7.50;;;0.80;99.90;;;;;;5084200;28;20043;-88
2023/01/22 08:02:13;;;;;;;16.35;7.10;;;0.80;99.90;;;;;;5100140;28;20407;-87
2023/01/22 08:04:42;;;;;;;13.48;6.78;;;0.80;99.90;;;;;;5074717;28;20484;-88
2023/01/22 08:07:14;;;;;;;16.70;7.70;;;;;;;;;;5075359;28;20044;-87
2023/01/22 08:09:40;;;;;;;12.90;7.20;;;0.80;99.90;;;;;;5094482;28;20040;-88
2023/01/22 08:12:05;;;;;;;12.45;6.80;;;0.80;99.90;;;;;;5096008;28;20051;-88
2023/01/22 08:14:31;;;;;;;13.13;6.65;;;0.80;99.90;;;;;;5077418;28;20032;-87
2023/01/22 08:16:57;;;;;;;12.40;6.32;;;0.80;99.90;;;;;;5087123;28;20547;-87
2023/01/22 08:19:23;;;;;;;13.57;6.72;;;0.80;99.90;;;;;;5083906;28;20046;-86
2023/01/22 08:21:49;;;;;;;15.05;6.57;;;;;;;;;;5078691;28;20032;-88
2023/01/22 08:24:18;;;;;;;13.38;6.47;;;0.70;99.90;;;;;;5074055;28;20043;-88
2023/01/22 08:26:44;;;;;;;13.93;6.38;;;;;;;;;;5072952;28;20040;-87
2023/01/22 08:29:13;;;;;;;12.73;6.50;;;0.80;99.90;;;;;;5077024;28;20114;-89
2023/01/22 08:31:42;;;;;;;12.68;6.28;;;0.60;99.90;;;;;;5075671;28;20040;-87
2023/01/22 08:34:08;;;;;;;12.77;6.15;;;0.80;99.90;;;;;;5082012;28;20104;-87
2023/01/22 08:36:36;;;;;;;11.98;5.88;;;0.90;99.90;;;;;;5080410;28;20028;-88
2023/01/22 08:39:02;;;;;;;11.02;5.57;;;0.80;99.90;;;;;;5054186;28;20046;-88
2023/01/22 08:41:32;;;;;;;10.70;5.88;;;0.80;99.90;;;;;;5077622;28;20044;-86
2023/01/22 08:44:10;;;;;;;14.60;6.53;;;0.80;99.90;;;;;;5076077;28;20489;-86
2023/01/22 08:46:39;;;;;;;14.68;6.30;;;0.40;99.90;;;;;;5074222;28;20392;-87
2023/01/22 08:49:05;;;;;;;10.90;5.55;;;0.80;99.90;;;;;;5078072;28;20303;-87
2023/01/22 08:51:34;;;;;;;11.65;5.25;;;0.80;99.90;;;;;;5085168;28;20031;-87
2023/01/22 08:54:03;;;;;;;12.30;5.72;;;0.80;99.90;;;;;;5098754;28;20472;-87
2023/01/22 08:56:31;;;;;;;9.65;4.82;;;0.70;99.90;;;;;;5094841;28;20043;-87
2023/01/22 08:59:05;;;;;;;12.00;6.20;;;;;;;;;;5078520;28;20063;-86
2023/01/22 09:01:32;;;;;;;11.43;6.10;;;0.80;99.90;;;;;;5096497;28;20488;-87
2023/01/22 09:04:01;;;;;;;12.32;5.68;;;0.80;99.90;;;;;;5085099;28;20047;-87
2023/01/22 09:06:27;;;;;;;11.77;6.03;;;0.80;99.90;;;;;;5066983;28;20781;-88
2023/01/22 09:08:53;;;;;;;12.52;5.78;;;0.80;99.90;;;;;;5079424;28;20055;-86
2023/01/22 09:11:31;;;;;;;12.57;6.00;;;0.80;99.90;;;;;;5087976;28;20028;-89
2023/01/22 09:13:57;;;;;;;11.07;5.53;;;0.80;99.90;;;;;;5093175;28;20108;-87
2023/01/22 09:16:26;;;;;;;12.50;5.82;;;0.80;99.90;;;;;;5078768;28;20213;-87
2023/01/22 09:18:55;;;;;;;12.93;6.38;;;2.00;99.90;;;;;;5078170;28;20116;-87
2023/01/22 09:21:21;;;;;;;13.65;7.22;;;;;;;;;;5071879;28;20036;-87
2023/01/22 09:23:53;;;;;;;12.77;6.25;;;;;;;;;;5100750;28;20074;-86
2023/01/22 09:26:33;;;;;;;12.02;6.80;;;0.90;99.90;;;;;;5102925;28;20074;-86
2023/01/22 09:29:16;;;;;;;12.10;6.72;;;0.70;99.90;;;;;;5057140;28;20477;-87
2023/01/22 09:31:42;;;;;;;11.65;5.90;;;0.90;99.90;;;;;;5076584;28;20031;-87
2023/01/22 09:34:08;;;;;;;12.77;6.20;;;;;;;;;;5071998;28;20042;-87
2023/01/22 09:36:34;;;;;;;12.55;6.35;;;1.00;99.90;;;;;;5075299;28;20332;-86
2023/01/22 09:39:00;;;;;;;12.23;6.10;;;;;;;;;;5081015;28;20127;-85
2023/01/22 09:41:33;;;;;;;14.15;7.43;;;1.00;99.90;;;;;;5102397;28;20043;-86
2023/01/22 09:44:25;;;;;;;11.98;6.38;;;1.10;99.90;;;;;;5074898;28;20125;-86
2023/01/22 09:47:05;;;;;;;11.20;5.82;;;1.10;99.90;;;;;;5069407;28;20075;-87
2023/01/22 09:49:56;;;;;;;13.00;6.60;;;1.20;99.90;;;;;;5100180;28;20036;-86
2023/01/22 09:52:35;;;;;;;13.77;6.38;;;1.20;99.90;;;;;;5091430;28;20511;-85
2023/01/22 09:55:24;;;;;;;13.45;6.70;;;1.30;99.90;;;;;;5078951;28;20535;-86
2023/01/22 09:57:55;;;;;;;11.75;6.32;;;1.30;99.90;;;;;;5065230;28;20059;-85
2023/01/22 10:00:25;;;;;;;12.20;6.20;;;3.00;99.90;;;;;;5094091;28;20048;-87
2023/01/22 10:03:03;;;;;;;12.27;6.43;;;;;;;;;;5099686;28;20044;-86
2023/01/22 10:05:39;;;;;;;12.40;6.88;;;1.40;99.90;;;;;;5098313;28;20126;-87
2023/01/22 10:08:30;;;;;;;11.73;6.38;;;1.40;99.90;;;;;;5085515;28;20047;-87
2023/01/22 10:11:02;;;;;;;14.63;7.05;;;1.40;99.90;;;;;;5078198;28;20492;-87
2023/01/22 10:13:31;;;;;;;13.75;7.80;;;1.40;99.90;;;;;;5076964;28;20039;-86
2023/01/22 10:16:04;;;;;;;13.93;8.32;;;;;;;;;;5081378;28;20184;-87
2023/01/22 10:18:45;;;;;;;12.00;7.53;;;1.50;99.90;;;;;;5099882;28;20035;-87
2023/01/22 10:21:32;;;;;;;12.80;6.75;;;1.50;99.90;;;;;;5095444;28;20059;-86
2023/01/22 10:23:58;;;;;;;14.10;6.50;;;1.60;99.90;;;;;;5082022;28;20043;-86
2023/01/22 10:26:51;;;;;;;12.90;7.05;;;1.60;99.90;;;;;;5092201;28;20035;-85
2023/01/22 10:29:31;;;;;;;11.25;6.13;;;1.60;99.90;;;;;;5082743;28;20056;-87
2023/01/22 10:31:59;;;;;;;11.93;6.85;;;3.50;99.90;;;;;;5071326;28;20286;-84
2023/01/22 10:34:35;;;;;;;11.82;6.55;;;1.70;99.90;;;;;;5081779;28;20396;-87
2023/01/22 10:37:21;;;;;;;11.93;7.00;;;1.70;99.90;;;;;;5088871;28;20039;-85
2023/01/22 10:40:18;;;;;;;12.18;6.20;;;1.70;99.90;;;;;;5071418;28;20051;-85
2023/01/22 10:42:43;;;;;;;;;;;1.70;99.90;;;;;;5095276;28;20067;-86
2023/01/22 10:45:15;;;;;;;13.35;6.78;;;;;;;;;;5074217;28;19955;-86
2023/01/22 10:47:43;;;;;;;14.30;6.63;;;1.80;99.90;;;;;;5095708;28;20032;-87
2023/01/22 10:50:13;;;;;;;11.30;6.22;;;1.80;99.90;;;;;;5092046;28;20036;-86
2023/01/22 10:52:46;;;;;;;13.45;6.95;;;1.80;99.90;;;;;;5082128;28;20560;-86
2023/01/22 10:55:22;;;;;;;12.23;6.43;;;2.10;99.90;;;;;;5096510;28;20160;-86
2023/01/22 10:57:57;;;;;;;12.32;6.47;;;1.30;99.90;;;;;;5078046;28;20040;-87
2023/01/22 11:00:31;;;;;;;12.30;6.85;;;1.90;99.90;;;;;;5076664;28;20054;-86
2023/01/22 11:03:00;;;;;;;13.25;7.00;;;;;;;;;;5080069;28;20108;-86
2023/01/22 11:05:33;;;;;;;11.93;6.53;;;;;;;;;;5086604;28;20492;-84
2023/01/22 11:08:04;;;;;;;13.27;6.75;;;1.90;99.90;;;;;;5094153;28;20086;-87
2023/01/22 11:10:43;;;;;;;12.20;7.38;;;;;;;;;;5074506;28;20035;-86
2023/01/22 11:13:36;;;;;;;13.32;6.65;;;1.90;99.90;;;;;;5095713;28;20074;-85
2023/01/22 11:16:22;;;;;;;12.88;6.97;;;1.90;99.90;;;;;;5093792;28;20122;-85
2023/01/22 11:18:58;;;;;;;14.90;7.10;;;2.00;99.90;;;;;;5080888;28;20051;-85
2023/01/22 11:21:44;;;;;;;11.98;6.78;;;2.00;99.90;;;;;;5078378;28;20040;-86
2023/01/22 11:24:17;;;;;;;12.60;6.90;;;;;;;;;;5080618;28;20044;-85
2023/01/22 11:27:15;;;;;;;12.02;6.80;;;2.10;99.90;;;;;;5079855;28;20028;-87
2023/01/22 11:30:33;;;;;;;13.55;6.55;;;2.20;99.90;;;;;;5062346;28;20134;-86
2023/01/22 11:33:19;;;;;;;11.88;6.55;;;2.10;99.90;;;;;;5003925;28;20107;-86
2023/01/22 11:36:18;;;;;;;13.93;6.22;;;2.20;99.90;;;;;;5019346;28;20029;-85
2023/01/22 11:39:00;;;;;;;13.38;6.72;;;2.20;99.90;;;;;;5074476;28;20048;-85
2023/01/22 11:42:16;;;;;;;20.80;6.87;;;2.30;99.90;;;;;;5092902;28;20043;-86
2023/01/22 11:44:47;;;;;;;17.00;6.35;;;2.30;99.90;;;;;;5038961;28;20303;-86
2023/01/22 11:47:36;;;;;;;12.02;6.35;;;2.30;99.90;;;;;;5006925;28;20045;-85
2023/01/22 11:50:10;;;;;;;12.70;5.78;;;2.30;99.90;;;;;;5071196;28;20076;-85
2023/01/22 11:52:39;;;;;;;13.30;6.13;;;1.80;99.90;;;;;;5097815;28;20040;-86
2023/01/22 11:55:23;;;;;;;14.23;6.50;;;2.30;99.90;;;;;;5082133;28;20040;-86
2023/01/22 11:57:57;;;;;;;16.20;6.95;;;2.30;99.90;;;;;;5074318;28;20210;-86
2023/01/22 12:00:54;;;;;;;11.57;6.03;;;2.40;99.90;;;;;;5075514;28;20035;-87
2023/01/22 12:03:40;;;;;;;13.02;6.60;;;2.50;99.90;;;;;;5080810;28;20516;-86
2023/01/22 12:06:27;;;;;;;10.90;5.85;;;2.50;99.90;;;;;;5092831;28;20052;-85
2023/01/22 12:09:11;;;;;;;13.52;6.55;;;4.10;99.90;;;;;;5078429;28;20043;-86
2023/01/22 12:11:45;;;;;;;11.52;5.78;;;2.50;99.90;;;;;;5075735;28;20071;-86
2023/01/22 12:14:36;;;;;;;16.45;7.00;;;2.50;99.90;;;;;;5097303;28;20035;-85
2023/01/22 12:17:39;;;;;;;11.73;6.30;;;2.40;99.90;;;;;;5091987;28;20055;-87
2023/01/22 12:20:44;;;;;;;13.25;6.15;;;2.50;99.90;;;;;;5077603;28;20039;-86
2023/01/22 12:23:24;;;;;;;12.98;6.22;;;2.60;99.90;;;;;;5081489;28;20281;-86
2023/01/22 12:26:20;;;;;;;13.48;6.13;;;2.60;99.90;;;;;;5085936;28;20042;-88
2023/01/22 12:29:04;;;;;;;11.65;5.65;;;2.60;99.90;;;;;;5051157;28;20416;-87
2023/01/22 12:31:50;;;;;;;12.98;5.93;;;2.90;99.90;;;;;;5109806;28;20047;-85
2023/01/22 12:34:36;;;;;;;12.65;6.10;;;4.40;99.90;;;;;;5098066;28;20115;-85
2023/01/22 12:37:04;;;;;;;13.20;6.38;;;2.60;99.90;;;;;;5080818;28;20047;-87
2023/01/22 12:39:56;;;;;;;10.85;5.80;;;2.70;99.90;;;;;;5086945;28;20043;-87
2023/01/22 12:42:49;;;;;;;13.65;5.65;;;2.70;99.90;;;;;;5056794;28;20120;-86
2023/01/22 12:45:51;;;;;;;12.85;6.20;;;2.70;99.90;;;;;;5078834;28;20039;-87
2023/01/22 12:48:55;;;;;;;11.57;6.22;;;2.70;99.90;;;;;;5077508;28;20395;-86
2023/01/22 12:51:39;;;;;;;11.68;6.07;;;2.70;99.90;;;;;;5083792;28;20038;-85
2023/01/22 12:54:27;;;;;;;10.63;5.95;;;;;;;;;;5084262;28;20036;-86
2023/01/22 12:57:10;;;;;;;14.85;5.60;;;;;;;;;;5081660;28;20058;-88
2023/01/22 13:00:02;;;;;;;;;;;2.70;99.90;;;;;;5073172;28;20048;-87
2023/01/22 13:02:29;;;;;;;12.65;5.95;;;2.70;99.90;;;;;;5062138;28;20345;-86
2023/01/22 13:05:16;;;;;;;12.73;6.57;;;2.60;99.90;;;;;;5077433;28;20044;-87
2023/01/22 13:07:45;;;;;;;15.98;6.70;;;2.90;99.90;;;;;;5074422;28;20043;-87
2023/01/22 13:10:34;;;;;;;12.27;6.10;;;2.60;99.90;;;;;;5091416;28;20140;-87
2023/01/22 13:13:14;;;;;;;13.60;6.25;;;;;;;;;;5078104;28;20512;-87
2023/01/22 13:15:41;;;;;;;14.23;6.55;;;2.70;99.90;;;;;;5078553;28;20076;-87
2023/01/22 13:18:24;;;;;;;13.02;7.13;;;2.70;99.90;;;;;;5086974;28;20051;-87
2023/01/22 13:21:08;;;;;;;13.50;6.60;;;3.20;99.90;;;;;;5101650;28;20043;-87
2023/01/22 13:23:43;;;;;;;13.73;6.78;;;2.70;99.90;;;;;;5098476;28;20047;-87
2023/01/22 13:26:24;;;;;;;15.20;7.00;;;2.70;99.90;;;;;;5078891;28;20032;-86
2023/01/22 13:28:59;;;;;;;12.23;6.38;;;2.50;99.90;;;;;;5100917;28;20453;-88